createdAt,value
2023-05-15T00:02:01.984Z,87.11
2023-05-15T00:04:32.281Z,87.65
2023-05-15T00:06:58.744Z,87.56
2023-05-15T00:09:25.249Z,87.20
2023-05-15T00:11:51.680Z,88.50
2023-05-15T00:14:18.177Z,90.00
2023-05-15T00:16:44.954Z,89.27
2023-05-15T00:19:11.598Z,88.92
2023-05-15T00:21:38.071Z,88.19
2023-05-15T00:24:04.575Z,87.30
2023-05-15T00:26:30.994Z,87.29
2023-05-15T00:28:57.579Z,87.55
2023-05-15T00:31:24.094Z,87.38
2023-05-15T00:33:50.563Z,88.26
2023-05-15T00:36:17.454Z,89.44
2023-05-15T00:38:43.947Z,89.13
2023-05-15T00:41:11.167Z,90.56
2023-05-15T00:43:39.963Z,88.93
2023-05-15T00:46:07.125Z,89.93
2023-05-15T00:48:33.705Z,89.53
2023-05-15T00:51:00.772Z,90.97
2023-05-15T00:53:28.005Z,90.62
2023-05-15T00:55:56.952Z,90.64
2023-05-15T00:58:23.763Z,89.83
2023-05-15T01:00:50.806Z,90.98
2023-05-15T01:03:17.641Z,89.36
2023-05-15T01:05:45.028Z,88.69
2023-05-15T01:08:17.429Z,89.23
2023-05-15T01:10:44.175Z,89.05
2023-05-15T01:13:11.551Z,89.00
2023-05-15T01:15:37.992Z,90.12
2023-05-15T01:18:05.885Z,90.74
2023-05-15T01:20:34.400Z,92.39
2023-05-15T01:23:06.408Z,92.47
2023-05-15T01:25:54.017Z,91.01
2023-05-15T01:28:31.641Z,90.97
2023-05-15T01:31:00.375Z,91.53
2023-05-15T01:33:36.492Z,92.49
2023-05-15T01:36:07.468Z,92.02
2023-05-15T01:38:45.434Z,92.65
2023-05-15T01:41:22.510Z,91.43
2023-05-15T01:43:55.596Z,91.60
2023-05-15T01:46:23.404Z,90.89
2023-05-15T01:48:51.566Z,91.08
2023-05-15T01:51:18.800Z,90.73
2023-05-15T01:53:45.829Z,93.24
2023-05-15T01:56:13.986Z,92.61
2023-05-15T01:58:41.448Z,91.49
2023-05-15T02:01:09.224Z,90.85
2023-05-15T02:03:36.302Z,92.98
2023-05-15T02:06:03.598Z,93.30
2023-05-15T02:08:30.872Z,93.79
2023-05-15T02:11:00.484Z,93.96
2023-05-15T02:13:27.421Z,94.00
2023-05-15T02:15:53.962Z,94.18
2023-05-15T02:18:20.648Z,93.71
2023-05-15T02:20:47.156Z,93.02
2023-05-15T02:23:13.648Z,93.54
2023-05-15T02:25:58.495Z,93.45
2023-05-15T02:28:36.454Z,93.88
2023-05-15T02:31:08.532Z,93.03
2023-05-15T02:33:44.420Z,92.91
2023-05-15T02:36:14.616Z,92.99
2023-05-15T02:38:47.119Z,93.15
2023-05-15T02:41:14.313Z,93.20
2023-05-15T02:43:41.117Z,92.55
2023-05-15T02:46:08.108Z,92.38
2023-05-15T02:48:35.686Z,94.17
2023-05-15T02:51:02.104Z,95.65
2023-05-15T02:53:28.618Z,94.63
2023-05-15T02:55:55.043Z,94.71
2023-05-15T02:58:21.455Z,94.04
2023-05-15T03:00:47.892Z,94.45
2023-05-15T03:03:14.327Z,94.82
2023-05-15T03:05:40.821Z,95.68
2023-05-15T03:08:07.277Z,95.85
2023-05-15T03:10:33.761Z,95.38
2023-05-15T03:13:00.234Z,95.30
2023-05-15T03:15:26.904Z,95.71
2023-05-15T03:17:53.747Z,95.82
2023-05-15T03:20:20.314Z,95.37
2023-05-15T03:22:46.765Z,95.33
2023-05-15T03:25:13.288Z,95.06
2023-05-15T03:27:39.672Z,95.96
2023-05-15T03:30:06.693Z,95.89
2023-05-15T03:32:33.317Z,95.18
2023-05-15T03:34:59.766Z,96.95
2023-05-15T03:37:26.170Z,96.09
2023-05-15T03:39:52.593Z,96.36
2023-05-15T03:42:23.320Z,95.56
2023-05-15T03:44:50.751Z,95.77
2023-05-15T03:47:17.244Z,96.99
2023-05-15T03:49:43.648Z,96.53
2023-05-15T03:52:10.261Z,96.81
2023-05-15T03:54:37.386Z,95.93
2023-05-15T03:57:04.769Z,96.71
2023-05-15T03:59:31.274Z,96.68
2023-05-15T04:04:28.994Z,96.67
2023-05-15T04:06:55.494Z,96.68
2023-05-15T04:09:21.979Z,96.41
2023-05-15T04:11:48.417Z,96.81
2023-05-15T04:14:14.953Z,96.91
2023-05-15T04:16:41.491Z,97.63
2023-05-15T04:19:08.024Z,97.33
2023-05-15T04:21:34.531Z,96.72
2023-05-15T04:24:00.999Z,96.78
2023-05-15T04:26:27.462Z,96.97
2023-05-15T04:29:03.507Z,95.87
2023-05-15T04:31:31.941Z,95.58
2023-05-15T04:33:58.665Z,93.40
2023-05-15T04:36:25.408Z,90.06
2023-05-15T04:38:51.836Z,89.22
2023-05-15T04:41:18.598Z,91.26
2023-05-15T04:43:45.047Z,92.14
2023-05-15T04:46:11.731Z,92.96
2023-05-15T04:48:38.225Z,92.48
2023-05-15T04:51:04.731Z,92.53
2023-05-15T04:53:31.174Z,94.50
2023-05-15T04:55:57.564Z,93.78
2023-05-15T04:58:24.007Z,95.20
2023-05-15T05:00:50.562Z,94.98
2023-05-15T05:03:17.020Z,94.86
2023-05-15T05:05:43.477Z,95.23
2023-05-15T05:08:09.890Z,94.79
2023-05-15T05:10:36.312Z,94.07
2023-05-15T05:13:02.748Z,94.22
2023-05-15T05:15:29.442Z,93.75
2023-05-15T05:17:55.938Z,93.95
2023-05-15T05:20:22.991Z,93.97
2023-05-15T05:22:49.492Z,91.80
2023-05-15T05:25:16.205Z,92.10
2023-05-15T05:27:42.816Z,93.06
2023-05-15T05:30:09.807Z,92.37
2023-05-15T05:32:36.265Z,91.67
2023-05-15T05:35:03.931Z,89.56
2023-05-15T05:37:30.446Z,88.95
2023-05-15T05:39:56.921Z,89.04
2023-05-15T05:42:23.303Z,87.33
2023-05-15T05:44:49.765Z,84.26
2023-05-15T05:47:16.517Z,83.88
2023-05-15T05:49:43.408Z,83.32
2023-05-15T05:52:09.835Z,81.38
2023-05-15T05:54:37.003Z,81.22
2023-05-15T05:57:03.505Z,81.70
2023-05-15T05:59:30.213Z,79.96
2023-05-15T06:01:56.910Z,79.89
2023-05-15T06:04:23.371Z,78.92
2023-05-15T06:06:50.185Z,78.51
2023-05-15T06:09:17.362Z,76.97
2023-05-15T06:11:43.855Z,75.99
2023-05-15T06:14:10.456Z,75.75
2023-05-15T06:16:36.880Z,76.06
2023-05-15T06:19:03.364Z,73.08
2023-05-15T06:21:29.810Z,75.09
2023-05-15T06:23:56.426Z,72.11
2023-05-15T06:26:22.947Z,74.92
2023-05-15T06:28:49.350Z,75.26
2023-05-15T06:31:17.259Z,76.76
2023-05-15T06:33:43.759Z,78.40
2023-05-15T06:36:10.284Z,78.71
2023-05-15T06:38:36.709Z,79.34
2023-05-15T06:41:03.162Z,77.95
2023-05-15T06:43:29.565Z,77.73
2023-05-15T06:45:55.944Z,77.81
2023-05-15T06:48:22.318Z,76.04
2023-05-15T06:50:48.924Z,75.28
2023-05-15T06:53:17.476Z,74.69
2023-05-15T06:55:44.004Z,72.58
2023-05-15T06:58:10.567Z,71.85
2023-05-15T07:00:36.999Z,72.79
2023-05-15T07:03:03.663Z,75.93
2023-05-15T07:05:30.682Z,76.33
2023-05-15T07:07:57.148Z,75.66
2023-05-15T07:10:23.966Z,75.08
2023-05-15T07:12:50.621Z,75.42
2023-05-15T07:15:17.586Z,77.47
2023-05-15T07:17:44.166Z,76.82
2023-05-15T07:20:10.975Z,74.12
2023-05-15T07:22:44.549Z,71.55
2023-05-15T07:25:16.844Z,69.66
2023-05-15T07:27:43.608Z,69.68
2023-05-15T07:30:10.523Z,68.30
2023-05-15T07:32:37.044Z,68.82
2023-05-15T07:35:04.983Z,68.65
2023-05-15T07:37:31.971Z,67.24
2023-05-15T07:39:58.611Z,65.93
2023-05-15T07:42:25.504Z,65.12
2023-05-15T07:44:51.971Z,64.52
2023-05-15T07:47:18.564Z,64.76
2023-05-15T07:49:45.057Z,64.87
2023-05-15T07:52:11.564Z,63.38
2023-05-15T07:54:39.552Z,64.65
2023-05-15T07:57:06.028Z,64.75
2023-05-15T07:59:32.527Z,63.01
2023-05-15T08:01:59.038Z,62.63
2023-05-15T08:04:25.531Z,61.79
2023-05-15T08:06:52.345Z,63.34
2023-05-15T08:09:18.822Z,62.33
2023-05-15T08:11:45.392Z,62.47
2023-05-15T08:14:13.792Z,63.82
2023-05-15T08:16:40.505Z,64.27
2023-05-15T08:19:07.829Z,66.00
2023-05-15T08:21:34.305Z,65.16
2023-05-15T08:24:00.919Z,64.85
2023-05-15T08:26:27.624Z,64.80
2023-05-15T08:28:54.005Z,65.37
2023-05-15T08:31:20.553Z,65.24
2023-05-15T08:33:47.118Z,66.95
2023-05-15T08:36:14.134Z,67.21
2023-05-15T08:38:40.682Z,68.45
2023-05-15T08:41:40.546Z,68.22
2023-05-15T08:44:11.264Z,67.57
2023-05-15T08:46:38.504Z,68.40
2023-05-15T08:49:12.243Z,68.58
2023-05-15T08:51:39.349Z,66.47
2023-05-15T08:54:06.054Z,67.34
2023-05-15T08:56:32.615Z,66.40
2023-05-15T08:58:59.071Z,66.10
2023-05-15T09:01:25.943Z,66.77
2023-05-15T09:03:52.388Z,65.98
2023-05-15T09:06:19.113Z,64.46
2023-05-15T09:08:46.457Z,63.47
2023-05-15T09:11:14.024Z,63.54
2023-05-15T09:13:40.535Z,62.44
2023-05-15T09:16:07.798Z,62.10
2023-05-15T09:18:34.337Z,62.19
2023-05-15T09:21:23.517Z,59.28
2023-05-15T09:23:50.006Z,57.74
2023-05-15T09:26:16.539Z,58.03
2023-05-15T09:28:43.326Z,58.89
2023-05-15T09:31:09.972Z,59.34
2023-05-15T09:33:38.311Z,58.97
2023-05-15T09:36:06.880Z,58.85
2023-05-15T09:38:34.373Z,59.16
2023-05-15T09:41:09.082Z,59.48
2023-05-15T09:43:39.777Z,60.45
2023-05-15T09:46:12.146Z,61.35
2023-05-15T09:48:38.981Z,67.28
2023-05-15T09:51:07.697Z,68.53
2023-05-15T09:53:34.615Z,72.12
2023-05-15T09:56:01.024Z,68.46
2023-05-15T09:58:27.537Z,69.17
2023-05-15T10:00:54.065Z,70.73
2023-05-15T10:03:20.945Z,69.74
2023-05-15T10:05:47.674Z,66.78
2023-05-15T10:08:15.637Z,63.19
2023-05-15T10:10:42.602Z,65.64
2023-05-15T10:13:09.970Z,65.05
2023-05-15T10:15:37.045Z,69.20
2023-05-15T10:18:04.598Z,70.78
2023-05-15T10:20:33.194Z,70.92
2023-05-15T10:23:00.532Z,69.44
2023-05-15T10:26:03.213Z,72.51
2023-05-15T10:28:30.185Z,74.38
2023-05-15T10:31:01.021Z,76.75
2023-05-15T10:33:28.225Z,75.96
2023-05-15T10:35:56.480Z,77.30
2023-05-15T10:38:23.062Z,74.23
2023-05-15T10:40:49.882Z,75.46
2023-05-15T10:43:16.733Z,73.21
2023-05-15T10:45:43.479Z,76.14
2023-05-15T10:48:12.236Z,75.07
2023-05-15T10:50:38.835Z,73.88
2023-05-15T10:53:05.798Z,76.50
2023-05-15T10:55:32.292Z,75.63
2023-05-15T10:57:58.751Z,74.23
2023-05-15T11:00:27.224Z,75.29
2023-05-15T11:02:56.838Z,76.07
2023-05-15T11:05:24.312Z,75.76
2023-05-15T11:08:26.336Z,74.61
2023-05-15T11:10:54.051Z,76.10
2023-05-15T11:13:20.863Z,76.35
2023-05-15T11:15:47.989Z,76.10
2023-05-15T11:18:14.678Z,77.28
2023-05-15T11:20:42.865Z,72.95
2023-05-15T11:23:09.580Z,72.93
2023-05-15T11:25:36.635Z,70.23
2023-05-15T11:28:04.430Z,70.23
2023-05-15T11:30:36.012Z,67.54
2023-05-15T11:33:08.492Z,69.77
2023-05-15T11:35:37.350Z,69.57
2023-05-15T11:38:12.146Z,68.67
2023-05-15T11:40:51.226Z,67.47
2023-05-15T11:43:18.692Z,69.98
2023-05-15T11:45:53.068Z,67.71
2023-05-15T11:48:20.020Z,64.68
2023-05-15T11:50:46.759Z,65.09
2023-05-15T11:53:13.785Z,64.17
2023-05-15T11:55:43.560Z,64.00
2023-05-15T11:58:18.056Z,65.43
2023-05-15T12:00:46.319Z,63.88
2023-05-15T12:03:26.022Z,63.68
2023-05-15T12:05:59.391Z,61.49
2023-05-15T12:08:31.043Z,62.45
2023-05-15T12:10:58.441Z,61.22
2023-05-15T12:13:24.972Z,58.43
2023-05-15T12:15:51.427Z,55.36
2023-05-15T12:18:17.869Z,59.76
2023-05-15T12:20:47.189Z,58.88
2023-05-15T12:23:17.462Z,54.98
2023-05-15T12:25:45.573Z,52.91
2023-05-15T12:28:12.301Z,50.46
2023-05-15T12:30:39.268Z,48.99
2023-05-15T12:33:07.086Z,50.04
2023-05-15T12:35:34.630Z,52.80
2023-05-15T12:38:05.067Z,55.12
2023-05-15T12:40:35.131Z,57.23
2023-05-15T12:43:06.084Z,57.54
2023-05-15T12:45:37.327Z,61.08
2023-05-15T12:48:04.504Z,58.54
2023-05-15T12:50:33.464Z,60.09
2023-05-15T12:53:05.022Z,60.94
2023-05-15T12:55:36.144Z,61.62
2023-05-15T12:58:07.433Z,61.31
2023-05-15T13:00:35.428Z,59.75
2023-05-15T13:03:02.537Z,61.63
2023-05-15T13:05:31.859Z,62.23
2023-05-15T13:07:59.405Z,61.20
2023-05-15T13:10:26.168Z,63.08
2023-05-15T13:12:53.747Z,61.34
2023-05-15T13:15:35.181Z,60.05
2023-05-15T13:18:02.692Z,58.35
2023-05-15T13:20:34.696Z,58.08
2023-05-15T13:23:02.095Z,55.95
2023-05-15T13:25:31.307Z,55.62
2023-05-15T13:27:59.737Z,54.41
2023-05-15T13:30:26.634Z,51.77
2023-05-15T13:32:55.494Z,52.26
2023-05-15T13:35:22.488Z,53.27
2023-05-15T13:37:49.450Z,50.92
2023-05-15T13:40:15.913Z,49.05
2023-05-15T13:42:43.769Z,49.30
2023-05-15T13:45:15.104Z,50.21
2023-05-15T13:47:42.244Z,46.89
2023-05-15T13:50:13.789Z,50.62
2023-05-15T13:52:41.545Z,49.19
2023-05-15T13:55:09.816Z,47.70
2023-05-15T13:57:37.900Z,48.87
2023-05-15T14:00:08.302Z,49.04
2023-05-15T14:02:34.883Z,48.82
2023-05-15T14:05:01.371Z,48.26
2023-05-15T14:07:27.936Z,49.85
2023-05-15T14:09:54.330Z,45.07
2023-05-15T14:12:21.988Z,44.72
2023-05-15T14:14:48.732Z,46.74
2023-05-15T14:17:15.740Z,46.58
2023-05-15T14:19:42.406Z,47.87
2023-05-15T14:22:09.190Z,45.11
2023-05-15T14:24:35.712Z,45.44
2023-05-15T14:27:02.138Z,43.62
2023-05-15T14:29:28.581Z,45.04
2023-05-15T14:31:55.031Z,51.92
2023-05-15T14:34:22.535Z,50.83
2023-05-15T14:36:49.806Z,50.38
2023-05-15T14:39:16.952Z,51.72
2023-05-15T14:41:43.759Z,49.91
2023-05-15T14:44:10.234Z,53.81
2023-05-15T14:46:37.969Z,52.53
2023-05-15T14:49:05.078Z,54.34
2023-05-15T14:51:31.932Z,53.72
2023-05-15T14:53:58.538Z,57.00
2023-05-15T14:56:25.779Z,52.96
2023-05-15T14:58:53.588Z,53.32
2023-05-15T15:01:20.638Z,56.74
2023-05-15T15:03:47.418Z,55.07
2023-05-15T15:06:13.980Z,55.36
2023-05-15T15:08:40.420Z,55.60
2023-05-15T15:11:07.674Z,55.05
2023-05-15T15:13:34.210Z,54.36
2023-05-15T15:16:00.758Z,55.99
2023-05-15T15:18:27.253Z,52.82
2023-05-15T15:20:53.926Z,51.94
2023-05-15T15:23:20.384Z,49.84
2023-05-15T15:25:46.840Z,51.08
2023-05-15T15:28:13.332Z,49.14
2023-05-15T15:30:40.115Z,50.44
2023-05-15T15:33:06.589Z,49.50
2023-05-15T15:35:33.151Z,51.29
2023-05-15T15:37:59.612Z,50.41
2023-05-15T15:40:26.359Z,50.27
2023-05-15T15:42:54.151Z,49.60
2023-05-15T15:45:20.807Z,50.18
2023-05-15T15:47:47.331Z,51.61
2023-05-15T15:50:14.096Z,49.69
2023-05-15T15:52:40.522Z,49.91
2023-05-15T15:55:07.663Z,49.96
2023-05-15T15:57:34.100Z,50.00
2023-05-15T16:00:00.556Z,49.92
2023-05-15T16:02:28.145Z,51.01
2023-05-15T16:04:54.700Z,53.28
2023-05-15T16:07:21.471Z,51.41
2023-05-15T16:09:51.390Z,49.51
2023-05-15T16:12:26.649Z,50.80
2023-05-15T16:14:53.975Z,51.38
2023-05-15T16:17:21.036Z,50.11
2023-05-15T16:19:47.468Z,51.30
2023-05-15T16:22:13.969Z,51.42
2023-05-15T16:24:40.836Z,51.01
2023-05-15T16:27:07.326Z,51.25
2023-05-15T16:29:33.767Z,51.98
2023-05-15T16:32:00.383Z,54.05
2023-05-15T16:34:27.477Z,54.66
2023-05-15T16:36:53.876Z,54.79
2023-05-15T16:39:20.278Z,55.43
2023-05-15T16:41:46.678Z,56.44
2023-05-15T16:44:13.131Z,58.05
2023-05-15T16:46:39.695Z,55.92
2023-05-15T16:49:06.447Z,56.30
2023-05-15T16:51:33.369Z,57.25
2023-05-15T16:53:59.830Z,57.55
2023-05-15T16:56:26.607Z,56.48
2023-05-15T16:58:54.727Z,56.80
2023-05-15T17:01:21.321Z,57.32
2023-05-15T17:03:47.825Z,57.58
2023-05-15T17:06:14.286Z,57.50
2023-05-15T17:08:42.577Z,62.19
2023-05-15T17:11:10.114Z,64.56
2023-05-15T17:13:36.558Z,64.84
2023-05-15T17:16:03.142Z,65.65
2023-05-15T17:18:29.663Z,66.22
2023-05-15T17:20:56.155Z,66.09
2023-05-15T17:23:23.158Z,65.53
2023-05-15T17:25:49.686Z,65.73
2023-05-15T17:28:16.145Z,66.37
2023-05-15T17:30:42.690Z,67.10
2023-05-15T17:33:09.162Z,66.79
2023-05-15T17:35:35.657Z,67.57
2023-05-15T17:38:02.182Z,67.72
2023-05-15T17:40:28.608Z,68.40
2023-05-15T17:42:55.089Z,69.19
2023-05-15T17:45:21.578Z,68.73
2023-05-15T17:47:49.146Z,69.26
2023-05-15T17:50:15.747Z,69.18
2023-05-15T17:52:42.145Z,68.36
2023-05-15T17:55:08.879Z,68.10
2023-05-15T17:57:35.371Z,67.54
2023-05-15T18:00:02.048Z,68.64
2023-05-15T18:02:28.495Z,66.38
2023-05-15T18:04:56.106Z,67.84
2023-05-15T18:07:22.551Z,72.91
2023-05-15T18:09:49.049Z,75.98
2023-05-15T18:12:15.449Z,76.77
2023-05-15T18:14:41.970Z,78.76
2023-05-15T18:17:08.452Z,80.60
2023-05-15T18:19:34.908Z,83.52
2023-05-15T18:22:03.164Z,82.67
2023-05-15T18:24:29.617Z,84.71
2023-05-15T18:26:56.014Z,83.71
2023-05-15T18:29:23.195Z,82.28
2023-05-15T18:31:49.765Z,84.11
2023-05-15T18:34:16.213Z,83.61
2023-05-15T18:36:42.644Z,86.63
2023-05-15T18:39:09.073Z,85.40
2023-05-15T18:41:35.551Z,86.12
2023-05-15T18:44:02.094Z,87.27
2023-05-15T18:46:30.361Z,87.37
2023-05-15T18:48:56.845Z,88.50
2023-05-15T18:51:23.625Z,85.30
2023-05-15T18:53:50.354Z,87.24
2023-05-15T18:56:16.726Z,89.16
2023-05-15T18:58:43.292Z,90.65
2023-05-15T19:01:09.771Z,91.81
2023-05-15T19:03:36.314Z,93.72
2023-05-15T19:06:02.796Z,92.78
2023-05-15T19:08:29.279Z,93.74
2023-05-15T19:10:55.804Z,93.11
2023-05-15T19:13:22.294Z,93.76
2023-05-15T19:15:52.578Z,92.23
2023-05-15T19:18:19.215Z,91.24
2023-05-15T19:20:50.326Z,89.54
2023-05-15T19:23:16.833Z,91.15
2023-05-15T19:25:44.800Z,91.40
2023-05-15T19:28:11.305Z,92.00
2023-05-15T19:30:37.763Z,94.41
2023-05-15T19:33:04.261Z,93.23
2023-05-15T19:35:30.766Z,93.61
2023-05-15T19:37:57.206Z,92.66
2023-05-15T19:40:23.694Z,91.43
2023-05-15T19:42:50.206Z,91.49
2023-05-15T19:45:16.664Z,93.79
2023-05-15T19:47:43.249Z,93.08
2023-05-15T19:50:10.224Z,93.38
2023-05-15T19:52:36.713Z,93.18
2023-05-15T19:55:03.362Z,92.76
2023-05-15T19:57:29.850Z,91.80
2023-05-15T19:59:56.305Z,93.44
2023-05-15T20:02:23.101Z,92.50
2023-05-15T20:04:49.654Z,91.94
2023-05-15T20:07:16.114Z,92.48
2023-05-15T20:09:42.501Z,93.15
2023-05-15T20:12:08.876Z,93.66
2023-05-15T20:14:35.453Z,93.59
2023-05-15T20:17:01.898Z,94.42
2023-05-15T20:19:33.160Z,93.34
2023-05-15T20:21:59.587Z,95.23
2023-05-15T20:24:26.255Z,94.78
2023-05-15T20:26:52.696Z,94.71
2023-05-15T20:29:19.113Z,95.37
2023-05-15T20:31:45.651Z,95.48
2023-05-15T20:34:15.031Z,94.88
2023-05-15T20:36:41.496Z,93.82
2023-05-15T20:39:08.490Z,95.12
2023-05-15T20:41:35.470Z,95.77
2023-05-15T20:44:02.109Z,96.63
2023-05-15T20:46:30.180Z,95.39
2023-05-15T20:48:56.888Z,95.75
2023-05-15T20:51:23.957Z,95.84
2023-05-15T20:53:50.801Z,94.67
2023-05-15T20:56:17.210Z,93.58
2023-05-15T20:58:43.632Z,94.60
2023-05-15T21:01:10.018Z,94.97
2023-05-15T21:03:36.561Z,96.75
2023-05-15T21:06:03.666Z,94.42
2023-05-15T21:08:30.099Z,92.68
2023-05-15T21:10:56.889Z,90.86
2023-05-15T21:13:23.383Z,92.12
2023-05-15T21:15:50.671Z,92.07
2023-05-15T21:18:18.702Z,91.12
2023-05-15T21:20:45.349Z,90.89
2023-05-15T21:23:11.829Z,91.13
2023-05-15T21:25:38.303Z,91.95
2023-05-15T21:28:04.885Z,91.83
2023-05-15T21:30:31.600Z,91.93
2023-05-15T21:32:58.071Z,91.80
2023-05-15T21:35:25.388Z,91.58
2023-05-15T21:37:51.805Z,91.83
2023-05-15T21:40:18.353Z,91.10
2023-05-15T21:42:44.823Z,91.19
2023-05-15T21:45:11.358Z,91.87
2023-05-15T21:47:37.830Z,90.46
2023-05-15T21:50:05.545Z,90.91
2023-05-15T21:52:31.997Z,90.66
2023-05-15T21:54:58.408Z,89.94
2023-05-15T21:57:24.929Z,89.66
2023-05-15T21:59:51.381Z,89.27
2023-05-15T22:02:17.802Z,90.65
2023-05-15T22:04:44.303Z,89.28
2023-05-15T22:07:11.220Z,89.82
2023-05-15T22:09:37.649Z,88.47
2023-05-15T22:12:04.623Z,89.81
2023-05-15T22:14:31.069Z,89.29
2023-05-15T22:16:57.539Z,88.08
2023-05-15T22:19:32.739Z,89.54
2023-05-15T22:22:01.259Z,89.31
2023-05-15T22:24:27.696Z,89.55
2023-05-15T22:26:54.144Z,89.46
2023-05-15T22:29:20.618Z,89.90
2023-05-15T22:31:47.159Z,88.92
2023-05-15T22:34:13.683Z,89.53
2023-05-15T22:36:40.082Z,90.04
2023-05-15T22:39:07.036Z,90.38
2023-05-15T22:41:33.694Z,89.80
2023-05-15T22:44:00.136Z,90.51
2023-05-15T22:46:26.823Z,89.26
2023-05-15T22:48:54.020Z,89.85
2023-05-15T22:51:20.522Z,88.51
2023-05-15T22:53:46.979Z,88.97
2023-05-15T22:56:13.369Z,90.39
2023-05-15T22:58:39.794Z,90.75
2023-05-15T23:01:06.303Z,89.77
2023-05-15T23:03:32.853Z,90.37
2023-05-15T23:05:59.238Z,90.58
2023-05-15T23:08:26.071Z,89.30
2023-05-15T23:10:53.255Z,89.12
2023-05-15T23:13:19.688Z,89.78
2023-05-15T23:15:46.519Z,89.46
2023-05-15T23:18:13.112Z,89.79
2023-05-15T23:20:39.640Z,90.38
2023-05-15T23:23:06.205Z,90.72
2023-05-15T23:25:32.584Z,91.41
2023-05-15T23:27:59.013Z,91.02
2023-05-15T23:30:25.795Z,90.88
2023-05-15T23:32:52.461Z,90.62
2023-05-15T23:35:18.922Z,90.70
2023-05-15T23:37:46.054Z,90.91
2023-05-15T23:40:13.328Z,90.64
2023-05-15T23:42:39.720Z,90.78
2023-05-15T23:45:06.973Z,91.21
2023-05-15T23:47:33.386Z,90.38
2023-05-15T23:49:59.825Z,90.58
2023-05-15T23:52:26.236Z,90.43
2023-05-15T23:54:52.659Z,90.64
2023-05-15T23:57:19.416Z,90.75
2023-05-15T23:59:45.932Z,90.99
